Huvudsida
METAR-TAF:

METAR-TAF

Flygplatser :

Ushuaia Aerodrome

Ushuaia, Argentina

latitud: 54-48S, longitud: 068-19W, höjd: 16 m

Aktuellt väderrapport

Denna rapport gjordes för 1 timme och 6 minuter sedan, klockan 05:00 UTC
Stilla vind
Temperatur 4°C
Fuktighet 65%
Tryck 988 hPa
Sikt 10 km eller mer
Spridda moln på en höjd av 3500 ft

METAR: SAWH 160500Z 00000KT 9999 SCT035 04/M02 Q0988

Tid: 03:06 (06:06 UTC)

Väderprognos

Denna rapport gjordes för 1 timme och 6 minuter sedan, klockan 05:00 UTC
Prognos gäller från 16 kl. 06 UTC till 17 kl. 06 UTC
Vind 10 kt från väst
Sikt 10 km eller mer
Spridda moln på en höjd av 3000 ft
Blir
från 16 kl. 13 UTC till 16 kl. 15 UTC
Vind 20 kt från väst i byarna ända upp till 30 kt
Blir
från 16 kl. 22 UTC till 16 kl. 24 UTC
Vind 10 kt från väst

TAF: SAWH 160500Z 1606/1706 26010KT 9999 SCT030 TX08/1619Z TN03/1610Z BECMG 1613/1615 28020G30KT BECMG 1622/1624 26010KT

Aktuella väderrapporter och prognoser från 4000 flygplatser (METAR- och TAF-rapporter).

De tillgängliga stationerna syns som gula och röda prickar på kartan.

För musen över prickarna för att se namnen på stationerna.

Klicka sedan för att få väderrapporter och prognoser.

För att ändra kartan: Klicka på de gröna knapparna med ett svart kors på för att zooma in; den gröna knappen med ett streck på för att zooma ut; eller på de gröna pilarna för angränsande kartor.


METAR-TAF: